Aviation Digital Data Service (ADDS)

Output produced by METARs form (1436 UTC 29 August 2015)
found at http://aviationweather.gov/adds/metars/
 
KBUF 291129Z 2912/3012 20004KT P6SM BKN200 
     FM291400 25005KT P6SM BKN150 
     FM300500 00000KT P6SM BKN060